sensor_id;sensor_type;location;lat;lon;timestamp;temperature;humidity
816;DHT22;25928;51.062;13.752;2022-12-10T00:02:11;4.50;1.00
816;DHT22;25928;51.062;13.752;2022-12-10T00:04:36;4.50;1.00
816;DHT22;25928;51.062;13.752;2022-12-10T00:07:02;4.50;1.00
816;DHT22;25928;51.062;13.752;2022-12-10T00:09:27;4.50;1.00
816;DHT22;25928;51.062;13.752;2022-12-10T00:11:53;4.40;1.00
816;DHT22;25928;51.062;13.752;2022-12-10T00:14:19;4.50;1.00
816;DHT22;25928;51.062;13.752;2022-12-10T00:16:44;4.50;1.00
816;DHT22;25928;51.062;13.752;2022-12-10T00:19:10;4.50;1.00
816;DHT22;25928;51.062;13.752;2022-12-10T00:21:36;4.50;1.00
816;DHT22;25928;51.062;13.752;2022-12-10T00:24:03;4.50;1.00
816;DHT22;25928;51.062;13.752;2022-12-10T00:26:36;4.50;1.00
816;DHT22;25928;51.062;13.752;2022-12-10T00:29:04;4.30;1.00
816;DHT22;25928;51.062;13.752;2022-12-10T00:31:33;4.30;1.00
816;DHT22;25928;51.062;13.752;2022-12-10T00:34:03;4.30;1.00
816;DHT22;25928;51.062;13.752;2022-12-10T00:36:43;4.20;1.00
816;DHT22;25928;51.062;13.752;2022-12-10T00:39:11;4.20;1.00
816;DHT22;25928;51.062;13.752;2022-12-10T00:41:37;4.30;1.00
816;DHT22;25928;51.062;13.752;2022-12-10T00:44:03;4.40;1.00
816;DHT22;25928;51.062;13.752;2022-12-10T00:46:29;4.30;1.00
816;DHT22;25928;51.062;13.752;2022-12-10T00:48:54;4.30;1.00
816;DHT22;25928;51.062;13.752;2022-12-10T00:51:22;4.20;1.00
816;DHT22;25928;51.062;13.752;2022-12-10T00:53:50;4.20;1.00
816;DHT22;25928;51.062;13.752;2022-12-10T00:56:19;4.30;1.00
816;DHT22;25928;51.062;13.752;2022-12-10T00:58:46;4.30;1.00
816;DHT22;25928;51.062;13.752;2022-12-10T01:01:24;4.30;1.00
816;DHT22;25928;51.062;13.752;2022-12-10T01:03:52;4.20;1.00
816;DHT22;25928;51.062;13.752;2022-12-10T01:06:22;4.20;1.00
816;DHT22;25928;51.062;13.752;2022-12-10T01:08:50;4.20;1.00
816;DHT22;25928;51.062;13.752;2022-12-10T01:11:17;4.20;1.00
816;DHT22;25928;51.062;13.752;2022-12-10T01:13:45;4.20;1.00
816;DHT22;25928;51.062;13.752;2022-12-10T01:16:12;4.20;1.00
816;DHT22;25928;51.062;13.752;2022-12-10T01:18:38;4.20;1.00
816;DHT22;25928;51.062;13.752;2022-12-10T01:21:07;4.20;1.00
816;DHT22;25928;51.062;13.752;2022-12-10T01:23:37;4.30;1.00
816;DHT22;25928;51.062;13.752;2022-12-10T01:26:05;4.30;1.00
816;DHT22;25928;51.062;13.752;2022-12-10T01:28:33;4.20;1.00
816;DHT22;25928;51.062;13.752;2022-12-10T01:31:02;4.20;1.00
816;DHT22;25928;51.062;13.752;2022-12-10T01:33:28;4.20;1.00
816;DHT22;25928;51.062;13.752;2022-12-10T01:35:54;4.30;1.00
816;DHT22;25928;51.062;13.752;2022-12-10T01:38:19;4.30;1.00
816;DHT22;25928;51.062;13.752;2022-12-10T01:40:45;4.40;1.00
816;DHT22;25928;51.062;13.752;2022-12-10T01:43:16;4.40;1.00
816;DHT22;25928;51.062;13.752;2022-12-10T01:45:42;4.50;1.00
816;DHT22;25928;51.062;13.752;2022-12-10T01:48:07;4.50;1.00
816;DHT22;25928;51.062;13.752;2022-12-10T01:50:33;4.50;1.00
816;DHT22;25928;51.062;13.752;2022-12-10T01:52:59;4.50;1.00
816;DHT22;25928;51.062;13.752;2022-12-10T01:55:42;4.50;1.00
816;DHT22;25928;51.062;13.752;2022-12-10T01:58:08;4.50;1.00
816;DHT22;25928;51.062;13.752;2022-12-10T02:00:38;4.40;1.00
816;DHT22;25928;51.062;13.752;2022-12-10T02:03:13;4.30;1.00
816;DHT22;25928;51.062;13.752;2022-12-10T02:05:54;4.40;1.00
816;DHT22;25928;51.062;13.752;2022-12-10T02:08:33;4.40;1.00
816;DHT22;25928;51.062;13.752;2022-12-10T02:13:42;4.40;1.00
816;DHT22;25928;51.062;13.752;2022-12-10T02:19:04;4.50;1.00
816;DHT22;25928;51.062;13.752;2022-12-10T02:21:37;4.50;1.00
816;DHT22;25928;51.062;13.752;2022-12-10T02:24:07;4.50;1.00
816;DHT22;25928;51.062;13.752;2022-12-10T02:29:17;4.50;1.00
816;DHT22;25928;51.062;13.752;2022-12-10T02:31:50;4.50;1.00
816;DHT22;25928;51.062;13.752;2022-12-10T02:34:18;4.50;1.00
816;DHT22;25928;51.062;13.752;2022-12-10T02:36:47;4.50;1.00
816;DHT22;25928;51.062;13.752;2022-12-10T02:39:18;4.50;1.00
816;DHT22;25928;51.062;13.752;2022-12-10T02:41:49;4.50;1.00
816;DHT22;25928;51.062;13.752;2022-12-10T02:44:17;4.60;1.00
816;DHT22;25928;51.062;13.752;2022-12-10T02:46:45;4.60;1.00
816;DHT22;25928;51.062;13.752;2022-12-10T02:49:14;4.60;1.00
816;DHT22;25928;51.062;13.752;2022-12-10T02:51:40;4.60;1.00
816;DHT22;25928;51.062;13.752;2022-12-10T02:54:33;4.60;1.00
816;DHT22;25928;51.062;13.752;2022-12-10T02:56:58;4.60;1.00
816;DHT22;25928;51.062;13.752;2022-12-10T02:59:30;4.60;1.00
816;DHT22;25928;51.062;13.752;2022-12-10T03:02:29;4.60;1.00
816;DHT22;25928;51.062;13.752;2022-12-10T03:05:27;4.60;1.00
816;DHT22;25928;51.062;13.752;2022-12-10T03:13:07;4.50;1.00
816;DHT22;25928;51.062;13.752;2022-12-10T03:15:38;4.50;1.00
816;DHT22;25928;51.062;13.752;2022-12-10T03:18:06;4.40;1.00
816;DHT22;25928;51.062;13.752;2022-12-10T03:20:35;4.50;1.00
816;DHT22;25928;51.062;13.752;2022-12-10T03:23:02;4.50;1.00
816;DHT22;25928;51.062;13.752;2022-12-10T03:25:30;4.50;1.00
816;DHT22;25928;51.062;13.752;2022-12-10T03:27:59;4.50;1.00
816;DHT22;25928;51.062;13.752;2022-12-10T03:30:26;4.40;1.00
816;DHT22;25928;51.062;13.752;2022-12-10T03:32:52;4.40;1.00
816;DHT22;25928;51.062;13.752;2022-12-10T03:35:20;4.30;1.00
816;DHT22;25928;51.062;13.752;2022-12-10T03:37:46;4.30;1.00
816;DHT22;25928;51.062;13.752;2022-12-10T03:40:15;4.20;1.00
816;DHT22;25928;51.062;13.752;2022-12-10T03:42:41;4.20;1.00
816;DHT22;25928;51.062;13.752;2022-12-10T03:45:07;4.20;1.00
816;DHT22;25928;51.062;13.752;2022-12-10T03:47:33;4.20;1.00
816;DHT22;25928;51.062;13.752;2022-12-10T03:49:58;4.30;1.00
816;DHT22;25928;51.062;13.752;2022-12-10T03:52:24;4.30;1.00
816;DHT22;25928;51.062;13.752;2022-12-10T03:54:49;4.30;1.00
816;DHT22;25928;51.062;13.752;2022-12-10T03:57:15;4.30;1.00
816;DHT22;25928;51.062;13.752;2022-12-10T03:59:41;4.30;1.00
816;DHT22;25928;51.062;13.752;2022-12-10T04:02:06;4.20;1.00
816;DHT22;25928;51.062;13.752;2022-12-10T04:04:32;4.50;1.00
816;DHT22;25928;51.062;13.752;2022-12-10T04:06:57;4.30;1.00
816;DHT22;25928;51.062;13.752;2022-12-10T04:09:23;4.40;1.00
816;DHT22;25928;51.062;13.752;2022-12-10T04:11:49;4.40;1.00
816;DHT22;25928;51.062;13.752;2022-12-10T04:14:14;4.40;1.00
816;DHT22;25928;51.062;13.752;2022-12-10T04:16:59;4.40;1.00
816;DHT22;25928;51.062;13.752;2022-12-10T04:19:25;4.40;1.00
816;DHT22;25928;51.062;13.752;2022-12-10T04:21:51;4.50;1.00
816;DHT22;25928;51.062;13.752;2022-12-10T04:24:36;4.50;1.00
816;DHT22;25928;51.062;13.752;2022-12-10T04:27:26;4.70;1.00
816;DHT22;25928;51.062;13.752;2022-12-10T04:29:54;4.70;1.00
816;DHT22;25928;51.062;13.752;2022-12-10T04:32:20;4.70;1.00
816;DHT22;25928;51.062;13.752;2022-12-10T04:34:46;4.70;1.00
816;DHT22;25928;51.062;13.752;2022-12-10T04:37:14;4.70;1.00
816;DHT22;25928;51.062;13.752;2022-12-10T04:39:40;4.60;1.00
816;DHT22;25928;51.062;13.752;2022-12-10T04:42:07;4.60;1.00
816;DHT22;25928;51.062;13.752;2022-12-10T04:44:33;4.60;1.00
816;DHT22;25928;51.062;13.752;2022-12-10T04:46:59;4.50;1.00
816;DHT22;25928;51.062;13.752;2022-12-10T04:49:24;4.50;1.00
816;DHT22;25928;51.062;13.752;2022-12-10T04:51:50;4.60;1.00
816;DHT22;25928;51.062;13.752;2022-12-10T04:54:16;4.70;1.00
816;DHT22;25928;51.062;13.752;2022-12-10T04:56:42;4.80;1.00
816;DHT22;25928;51.062;13.752;2022-12-10T04:59:08;4.90;1.00
816;DHT22;25928;51.062;13.752;2022-12-10T05:01:34;5.00;1.00
816;DHT22;25928;51.062;13.752;2022-12-10T05:04:01;4.90;1.00
816;DHT22;25928;51.062;13.752;2022-12-10T05:06:27;4.70;1.00
816;DHT22;25928;51.062;13.752;2022-12-10T05:08:53;4.60;1.00
816;DHT22;25928;51.062;13.752;2022-12-10T05:11:21;4.50;1.00
816;DHT22;25928;51.062;13.752;2022-12-10T05:13:47;4.50;1.00
816;DHT22;25928;51.062;13.752;2022-12-10T05:16:17;5.10;1.00
816;DHT22;25928;51.062;13.752;2022-12-10T05:18:43;4.50;1.00
816;DHT22;25928;51.062;13.752;2022-12-10T05:21:14;4.30;1.00
816;DHT22;25928;51.062;13.752;2022-12-10T05:23:43;4.40;1.00
816;DHT22;25928;51.062;13.752;2022-12-10T05:26:12;4.40;1.00
816;DHT22;25928;51.062;13.752;2022-12-10T05:28:52;4.30;1.00
816;DHT22;25928;51.062;13.752;2022-12-10T05:31:21;4.20;1.00
816;DHT22;25928;51.062;13.752;2022-12-10T05:33:47;4.00;1.00
816;DHT22;25928;51.062;13.752;2022-12-10T05:36:15;4.10;1.00
816;DHT22;25928;51.062;13.752;2022-12-10T05:38:41;4.10;1.00
816;DHT22;25928;51.062;13.752;2022-12-10T05:41:09;4.10;1.00
816;DHT22;25928;51.062;13.752;2022-12-10T05:43:36;4.00;1.00
816;DHT22;25928;51.062;13.752;2022-12-10T05:46:03;4.00;1.00
816;DHT22;25928;51.062;13.752;2022-12-10T05:48:30;4.20;1.00
816;DHT22;25928;51.062;13.752;2022-12-10T05:50:56;4.10;1.00
816;DHT22;25928;51.062;13.752;2022-12-10T05:53:22;4.10;1.00
816;DHT22;25928;51.062;13.752;2022-12-10T05:55:48;4.10;1.00
816;DHT22;25928;51.062;13.752;2022-12-10T05:58:13;4.20;1.00
816;DHT22;25928;51.062;13.752;2022-12-10T06:00:40;4.00;1.00
816;DHT22;25928;51.062;13.752;2022-12-10T06:03:05;4.00;1.00
816;DHT22;25928;51.062;13.752;2022-12-10T06:05:40;4.10;1.00
816;DHT22;25928;51.062;13.752;2022-12-10T06:08:06;4.10;1.00
816;DHT22;25928;51.062;13.752;2022-12-10T06:10:36;4.00;1.00
816;DHT22;25928;51.062;13.752;2022-12-10T06:13:02;4.00;1.00
816;DHT22;25928;51.062;13.752;2022-12-10T06:15:28;3.90;1.00
816;DHT22;25928;51.062;13.752;2022-12-10T06:17:55;4.00;1.00
816;DHT22;25928;51.062;13.752;2022-12-10T06:20:21;3.90;1.00
816;DHT22;25928;51.062;13.752;2022-12-10T06:22:47;3.90;1.00
816;DHT22;25928;51.062;13.752;2022-12-10T06:25:12;3.80;1.00
816;DHT22;25928;51.062;13.752;2022-12-10T06:27:38;3.80;1.00
816;DHT22;25928;51.062;13.752;2022-12-10T06:30:04;3.90;1.00
816;DHT22;25928;51.062;13.752;2022-12-10T06:32:30;3.90;1.00
816;DHT22;25928;51.062;13.752;2022-12-10T06:34:56;3.90;1.00
816;DHT22;25928;51.062;13.752;2022-12-10T06:37:21;4.00;1.00
816;DHT22;25928;51.062;13.752;2022-12-10T06:39:47;4.00;1.00
816;DHT22;25928;51.062;13.752;2022-12-10T06:42:12;4.10;1.00
816;DHT22;25928;51.062;13.752;2022-12-10T06:44:38;4.10;1.00
816;DHT22;25928;51.062;13.752;2022-12-10T06:47:04;4.10;1.00
816;DHT22;25928;51.062;13.752;2022-12-10T06:49:29;4.10;1.00
816;DHT22;25928;51.062;13.752;2022-12-10T06:51:55;4.10;1.00
816;DHT22;25928;51.062;13.752;2022-12-10T06:54:20;4.10;1.00
816;DHT22;25928;51.062;13.752;2022-12-10T06:56:46;4.10;1.00
816;DHT22;25928;51.062;13.752;2022-12-10T06:59:11;4.20;1.00
816;DHT22;25928;51.062;13.752;2022-12-10T07:01:38;4.20;1.00
816;DHT22;25928;51.062;13.752;2022-12-10T07:04:04;4.10;1.00
816;DHT22;25928;51.062;13.752;2022-12-10T07:06:31;4.10;1.00
816;DHT22;25928;51.062;13.752;2022-12-10T07:08:57;4.00;1.00
816;DHT22;25928;51.062;13.752;2022-12-10T07:11:24;4.10;1.00
816;DHT22;25928;51.062;13.752;2022-12-10T07:13:50;4.10;1.00
816;DHT22;25928;51.062;13.752;2022-12-10T07:16:21;4.20;1.00
816;DHT22;25928;51.062;13.752;2022-12-10T07:18:48;4.20;1.00
816;DHT22;25928;51.062;13.752;2022-12-10T07:23:50;4.10;1.00
816;DHT22;25928;51.062;13.752;2022-12-10T07:26:17;4.10;1.00
816;DHT22;25928;51.062;13.752;2022-12-10T07:28:42;3.90;1.00
816;DHT22;25928;51.062;13.752;2022-12-10T07:31:09;3.90;1.00
816;DHT22;25928;51.062;13.752;2022-12-10T07:33:36;3.90;1.00
816;DHT22;25928;51.062;13.752;2022-12-10T07:36:09;3.90;1.00
816;DHT22;25928;51.062;13.752;2022-12-10T07:38:35;3.90;1.00
816;DHT22;25928;51.062;13.752;2022-12-10T07:41:06;3.90;1.00
816;DHT22;25928;51.062;13.752;2022-12-10T07:43:36;3.90;1.00
816;DHT22;25928;51.062;13.752;2022-12-10T07:46:14;3.90;1.00
816;DHT22;25928;51.062;13.752;2022-12-10T07:48:41;4.00;1.00
816;DHT22;25928;51.062;13.752;2022-12-10T07:51:08;4.00;1.00
816;DHT22;25928;51.062;13.752;2022-12-10T07:53:33;4.00;1.00
816;DHT22;25928;51.062;13.752;2022-12-10T07:56:00;3.90;1.00
816;DHT22;25928;51.062;13.752;2022-12-10T07:58:26;3.70;1.00
816;DHT22;25928;51.062;13.752;2022-12-10T08:00:52;3.70;1.00
816;DHT22;25928;51.062;13.752;2022-12-10T08:03:18;3.70;1.00
816;DHT22;25928;51.062;13.752;2022-12-10T08:05:43;3.60;1.00
816;DHT22;25928;51.062;13.752;2022-12-10T08:08:09;3.50;1.00
816;DHT22;25928;51.062;13.752;2022-12-10T08:10:35;3.50;1.00
816;DHT22;25928;51.062;13.752;2022-12-10T08:13:01;3.60;1.00
816;DHT22;25928;51.062;13.752;2022-12-10T08:15:27;3.70;1.00
816;DHT22;25928;51.062;13.752;2022-12-10T08:17:54;3.70;1.00
816;DHT22;25928;51.062;13.752;2022-12-10T08:20:20;3.60;1.00
816;DHT22;25928;51.062;13.752;2022-12-10T08:22:45;3.70;1.00
816;DHT22;25928;51.062;13.752;2022-12-10T08:25:11;3.70;1.00
816;DHT22;25928;51.062;13.752;2022-12-10T08:27:37;3.70;1.00
816;DHT22;25928;51.062;13.752;2022-12-10T08:30:03;3.70;1.00
816;DHT22;25928;51.062;13.752;2022-12-10T08:32:28;3.70;1.00
816;DHT22;25928;51.062;13.752;2022-12-10T08:34:55;3.70;1.00
816;DHT22;25928;51.062;13.752;2022-12-10T08:37:20;3.70;1.00
816;DHT22;25928;51.062;13.752;2022-12-10T08:39:46;3.70;1.00
816;DHT22;25928;51.062;13.752;2022-12-10T08:42:12;3.70;1.00
816;DHT22;25928;51.062;13.752;2022-12-10T08:44:37;3.80;1.00
816;DHT22;25928;51.062;13.752;2022-12-10T08:47:03;3.80;1.00
816;DHT22;25928;51.062;13.752;2022-12-10T08:49:28;3.90;1.00
816;DHT22;25928;51.062;13.752;2022-12-10T08:51:54;3.90;1.00
816;DHT22;25928;51.062;13.752;2022-12-10T08:54:20;3.90;1.00
816;DHT22;25928;51.062;13.752;2022-12-10T08:56:45;3.80;1.00
816;DHT22;25928;51.062;13.752;2022-12-10T08:59:11;3.70;1.00
816;DHT22;25928;51.062;13.752;2022-12-10T09:01:36;3.70;1.00
816;DHT22;25928;51.062;13.752;2022-12-10T09:04:02;3.80;1.00
816;DHT22;25928;51.062;13.752;2022-12-10T09:06:28;3.80;1.00
816;DHT22;25928;51.062;13.752;2022-12-10T09:08:54;3.70;1.00
816;DHT22;25928;51.062;13.752;2022-12-10T09:11:30;3.70;1.00
816;DHT22;25928;51.062;13.752;2022-12-10T09:13:56;3.80;1.00
816;DHT22;25928;51.062;13.752;2022-12-10T09:16:34;3.70;1.00
816;DHT22;25928;51.062;13.752;2022-12-10T09:19:00;3.70;1.00
816;DHT22;25928;51.062;13.752;2022-12-10T09:21:27;3.70;1.00
816;DHT22;25928;51.062;13.752;2022-12-10T09:23:53;3.80;1.00
816;DHT22;25928;51.062;13.752;2022-12-10T09:26:20;3.80;1.00
816;DHT22;25928;51.062;13.752;2022-12-10T09:28:46;3.70;1.00
816;DHT22;25928;51.062;13.752;2022-12-10T09:31:12;3.70;1.00
816;DHT22;25928;51.062;13.752;2022-12-10T09:33:39;3.60;1.00
816;DHT22;25928;51.062;13.752;2022-12-10T09:36:06;3.60;1.00
816;DHT22;25928;51.062;13.752;2022-12-10T09:38:38;3.60;1.00
816;DHT22;25928;51.062;13.752;2022-12-10T09:41:05;3.50;1.00
816;DHT22;25928;51.062;13.752;2022-12-10T09:51:23;3.70;1.00
816;DHT22;25928;51.062;13.752;2022-12-10T09:53:50;3.70;1.00
816;DHT22;25928;51.062;13.752;2022-12-10T09:56:34;3.60;1.00
816;DHT22;25928;51.062;13.752;2022-12-10T09:59:19;3.60;1.00
816;DHT22;25928;51.062;13.752;2022-12-10T10:01:47;3.60;1.00
816;DHT22;25928;51.062;13.752;2022-12-10T10:04:15;3.70;1.00
816;DHT22;25928;51.062;13.752;2022-12-10T10:06:42;3.60;1.00
816;DHT22;25928;51.062;13.752;2022-12-10T10:09:11;3.60;1.00
816;DHT22;25928;51.062;13.752;2022-12-10T10:11:39;3.80;1.00
816;DHT22;25928;51.062;13.752;2022-12-10T10:14:14;3.80;1.00
816;DHT22;25928;51.062;13.752;2022-12-10T10:16:48;3.70;1.00
816;DHT22;25928;51.062;13.752;2022-12-10T10:19:19;3.60;1.00
816;DHT22;25928;51.062;13.752;2022-12-10T10:21:48;3.70;1.00
816;DHT22;25928;51.062;13.752;2022-12-10T10:24:22;3.60;1.00
816;DHT22;25928;51.062;13.752;2022-12-10T10:26:52;3.70;1.00
816;DHT22;25928;51.062;13.752;2022-12-10T10:29:21;3.60;1.00
816;DHT22;25928;51.062;13.752;2022-12-10T10:32:20;3.80;1.00
816;DHT22;25928;51.062;13.752;2022-12-10T10:34:52;3.70;1.00
816;DHT22;25928;51.062;13.752;2022-12-10T10:40:00;4.00;1.00
816;DHT22;25928;51.062;13.752;2022-12-10T10:42:40;4.00;1.00
816;DHT22;25928;51.062;13.752;2022-12-10T10:48:17;4.40;1.00
816;DHT22;25928;51.062;13.752;2022-12-10T10:53:25;4.60;1.00
816;DHT22;25928;51.062;13.752;2022-12-10T10:55:53;4.60;1.00
816;DHT22;25928;51.062;13.752;2022-12-10T10:58:20;4.50;1.00
816;DHT22;25928;51.062;13.752;2022-12-10T11:00:54;4.40;1.00
816;DHT22;25928;51.062;13.752;2022-12-10T11:03:21;4.40;1.00
816;DHT22;25928;51.062;13.752;2022-12-10T11:05:47;4.30;1.00
816;DHT22;25928;51.062;13.752;2022-12-10T11:08:16;4.30;1.00
816;DHT22;25928;51.062;13.752;2022-12-10T11:10:49;4.40;1.00
816;DHT22;25928;51.062;13.752;2022-12-10T11:13:27;4.30;1.00
816;DHT22;25928;51.062;13.752;2022-12-10T11:16:22;4.20;1.00
816;DHT22;25928;51.062;13.752;2022-12-10T11:18:59;4.20;1.00
816;DHT22;25928;51.062;13.752;2022-12-10T11:21:28;4.10;1.00
816;DHT22;25928;51.062;13.752;2022-12-10T11:23:56;4.10;1.00
816;DHT22;25928;51.062;13.752;2022-12-10T11:29:52;4.20;1.00
816;DHT22;25928;51.062;13.752;2022-12-10T11:32:52;4.30;1.00
816;DHT22;25928;51.062;13.752;2022-12-10T11:43:31;4.30;1.00
816;DHT22;25928;51.062;13.752;2022-12-10T11:46:05;4.30;1.00
816;DHT22;25928;51.062;13.752;2022-12-10T11:48:55;4.30;1.00
816;DHT22;25928;51.062;13.752;2022-12-10T11:51:35;4.40;1.00
816;DHT22;25928;51.062;13.752;2022-12-10T11:54:43;4.40;1.00
816;DHT22;25928;51.062;13.752;2022-12-10T11:57:34;4.40;1.00
816;DHT22;25928;51.062;13.752;2022-12-10T12:00:20;4.50;1.00
816;DHT22;25928;51.062;13.752;2022-12-10T12:03:11;4.60;1.00
816;DHT22;25928;51.062;13.752;2022-12-10T12:11:02;4.50;1.00
816;DHT22;25928;51.062;13.752;2022-12-10T12:14:18;4.60;1.00
816;DHT22;25928;51.062;13.752;2022-12-10T12:17:27;4.50;1.00
816;DHT22;25928;51.062;13.752;2022-12-10T12:20:02;4.40;1.00
816;DHT22;25928;51.062;13.752;2022-12-10T12:22:39;4.40;1.00
816;DHT22;25928;51.062;13.752;2022-12-10T12:25:28;4.10;1.00
816;DHT22;25928;51.062;13.752;2022-12-10T12:28:15;4.20;1.00
816;DHT22;25928;51.062;13.752;2022-12-10T12:30:45;4.30;1.00
816;DHT22;25928;51.062;13.752;2022-12-10T12:33:16;4.40;1.00
816;DHT22;25928;51.062;13.752;2022-12-10T12:35:50;4.50;1.00
816;DHT22;25928;51.062;13.752;2022-12-10T12:38:28;4.70;1.00
816;DHT22;25928;51.062;13.752;2022-12-10T12:41:10;4.70;1.00
816;DHT22;25928;51.062;13.752;2022-12-10T12:44:21;4.60;1.00
816;DHT22;25928;51.062;13.752;2022-12-10T12:46:44;4.60;1.00
816;DHT22;25928;51.062;13.752;2022-12-10T12:51:53;4.40;1.00
816;DHT22;25928;51.062;13.752;2022-12-10T12:54:19;4.50;1.00
816;DHT22;25928;51.062;13.752;2022-12-10T12:59:52;4.40;1.00
816;DHT22;25928;51.062;13.752;2022-12-10T13:04:56;4.60;1.00
816;DHT22;25928;51.062;13.752;2022-12-10T13:10:09;4.60;1.00
816;DHT22;25928;51.062;13.752;2022-12-10T13:37:03;4.40;1.00
816;DHT22;25928;51.062;13.752;2022-12-10T13:39:34;4.50;1.00
816;DHT22;25928;51.062;13.752;2022-12-10T13:45:01;4.70;1.00
816;DHT22;25928;51.062;13.752;2022-12-10T13:50:06;4.40;1.00
816;DHT22;25928;51.062;13.752;2022-12-10T13:55:39;4.30;1.00
816;DHT22;25928;51.062;13.752;2022-12-10T14:01:33;4.40;1.00
816;DHT22;25928;51.062;13.752;2022-12-10T14:06:59;4.30;1.00
816;DHT22;25928;51.062;13.752;2022-12-10T14:09:29;4.20;1.00
816;DHT22;25928;51.062;13.752;2022-12-10T14:12:10;4.10;1.00
816;DHT22;25928;51.062;13.752;2022-12-10T14:14:42;4.00;1.00
816;DHT22;25928;51.062;13.752;2022-12-10T14:17:18;4.00;1.00
816;DHT22;25928;51.062;13.752;2022-12-10T14:19:46;4.00;1.00
816;DHT22;25928;51.062;13.752;2022-12-10T14:22:18;3.90;1.00
816;DHT22;25928;51.062;13.752;2022-12-10T14:24:49;3.90;1.00
816;DHT22;25928;51.062;13.752;2022-12-10T14:27:18;3.80;1.00
816;DHT22;25928;51.062;13.752;2022-12-10T14:29:49;3.90;1.00
816;DHT22;25928;51.062;13.752;2022-12-10T14:32:23;3.80;1.00
816;DHT22;25928;51.062;13.752;2022-12-10T14:34:54;3.80;1.00
816;DHT22;25928;51.062;13.752;2022-12-10T14:37:24;3.80;1.00
816;DHT22;25928;51.062;13.752;2022-12-10T14:39:51;3.80;1.00
816;DHT22;25928;51.062;13.752;2022-12-10T14:42:17;3.80;1.00
816;DHT22;25928;51.062;13.752;2022-12-10T14:44:45;3.90;1.00
816;DHT22;25928;51.062;13.752;2022-12-10T14:47:19;3.90;1.00
816;DHT22;25928;51.062;13.752;2022-12-10T14:49:51;3.90;1.00
816;DHT22;25928;51.062;13.752;2022-12-10T14:52:21;3.90;1.00
816;DHT22;25928;51.062;13.752;2022-12-10T14:54:48;4.00;1.00
816;DHT22;25928;51.062;13.752;2022-12-10T14:57:30;4.10;1.00
816;DHT22;25928;51.062;13.752;2022-12-10T15:00:17;4.20;1.00
816;DHT22;25928;51.062;13.752;2022-12-10T15:03:07;4.20;1.00
816;DHT22;25928;51.062;13.752;2022-12-10T15:05:34;4.20;1.00
816;DHT22;25928;51.062;13.752;2022-12-10T15:10:38;4.30;1.00
816;DHT22;25928;51.062;13.752;2022-12-10T15:15:52;4.20;1.00
816;DHT22;25928;51.062;13.752;2022-12-10T15:18:28;4.00;1.00
816;DHT22;25928;51.062;13.752;2022-12-10T15:21:04;4.00;1.00
816;DHT22;25928;51.062;13.752;2022-12-10T15:23:31;4.10;1.00
816;DHT22;25928;51.062;13.752;2022-12-10T15:28:36;4.20;1.00
816;DHT22;25928;51.062;13.752;2022-12-10T15:31:12;4.10;1.00
816;DHT22;25928;51.062;13.752;2022-12-10T15:33:44;4.20;1.00
816;DHT22;25928;51.062;13.752;2022-12-10T15:38:47;4.00;1.00
816;DHT22;25928;51.062;13.752;2022-12-10T15:44:06;3.80;1.00
816;DHT22;25928;51.062;13.752;2022-12-10T15:46:49;3.70;1.00
816;DHT22;25928;51.062;13.752;2022-12-10T15:49:15;3.80;1.00
816;DHT22;25928;51.062;13.752;2022-12-10T15:51:41;3.80;1.00
816;DHT22;25928;51.062;13.752;2022-12-10T15:54:34;3.90;1.00
816;DHT22;25928;51.062;13.752;2022-12-10T15:57:19;4.00;1.00
816;DHT22;25928;51.062;13.752;2022-12-10T15:59:46;4.10;1.00
816;DHT22;25928;51.062;13.752;2022-12-10T16:02:39;4.10;1.00
816;DHT22;25928;51.062;13.752;2022-12-10T16:05:28;4.10;1.00
816;DHT22;25928;51.062;13.752;2022-12-10T16:07:56;4.00;1.00
816;DHT22;25928;51.062;13.752;2022-12-10T16:10:24;4.00;1.00
816;DHT22;25928;51.062;13.752;2022-12-10T16:13:05;3.90;1.00
816;DHT22;25928;51.062;13.752;2022-12-10T16:15:34;3.90;1.00
816;DHT22;25928;51.062;13.752;2022-12-10T16:18:03;3.80;1.00
816;DHT22;25928;51.062;13.752;2022-12-10T16:20:31;3.80;1.00
816;DHT22;25928;51.062;13.752;2022-12-10T16:22:57;3.70;1.00
816;DHT22;25928;51.062;13.752;2022-12-10T16:25:25;3.70;1.00
816;DHT22;25928;51.062;13.752;2022-12-10T16:27:52;3.80;1.00
816;DHT22;25928;51.062;13.752;2022-12-10T16:30:21;3.70;1.00
816;DHT22;25928;51.062;13.752;2022-12-10T16:32:47;3.80;1.00
816;DHT22;25928;51.062;13.752;2022-12-10T16:35:13;3.70;1.00
816;DHT22;25928;51.062;13.752;2022-12-10T16:37:43;3.70;1.00
816;DHT22;25928;51.062;13.752;2022-12-10T16:40:13;3.60;1.00
816;DHT22;25928;51.062;13.752;2022-12-10T16:42:40;3.60;1.00
816;DHT22;25928;51.062;13.752;2022-12-10T16:45:17;3.40;1.00
816;DHT22;25928;51.062;13.752;2022-12-10T16:47:43;3.40;1.00
816;DHT22;25928;51.062;13.752;2022-12-10T16:50:10;3.50;1.00
816;DHT22;25928;51.062;13.752;2022-12-10T16:52:36;3.40;1.00
816;DHT22;25928;51.062;13.752;2022-12-10T16:55:02;3.40;1.00
816;DHT22;25928;51.062;13.752;2022-12-10T16:57:28;3.50;1.00
816;DHT22;25928;51.062;13.752;2022-12-10T16:59:53;3.60;1.00
816;DHT22;25928;51.062;13.752;2022-12-10T17:02:20;3.60;1.00
816;DHT22;25928;51.062;13.752;2022-12-10T17:04:46;3.50;1.00
816;DHT22;25928;51.062;13.752;2022-12-10T17:07:13;3.60;1.00
816;DHT22;25928;51.062;13.752;2022-12-10T17:09:39;3.70;1.00
816;DHT22;25928;51.062;13.752;2022-12-10T17:12:06;3.50;1.00
816;DHT22;25928;51.062;13.752;2022-12-10T17:14:38;3.60;1.00
816;DHT22;25928;51.062;13.752;2022-12-10T17:17:04;3.70;1.00
816;DHT22;25928;51.062;13.752;2022-12-10T17:19:36;3.80;1.00
816;DHT22;25928;51.062;13.752;2022-12-10T17:22:03;3.80;1.00
816;DHT22;25928;51.062;13.752;2022-12-10T17:24:30;3.70;1.00
816;DHT22;25928;51.062;13.752;2022-12-10T17:27:00;3.70;1.00
816;DHT22;25928;51.062;13.752;2022-12-10T17:29:39;3.70;1.00
816;DHT22;25928;51.062;13.752;2022-12-10T17:32:10;3.60;1.00
816;DHT22;25928;51.062;13.752;2022-12-10T17:34:37;3.70;1.00
816;DHT22;25928;51.062;13.752;2022-12-10T17:37:09;3.60;1.00
816;DHT22;25928;51.062;13.752;2022-12-10T17:39:35;3.60;1.00
816;DHT22;25928;51.062;13.752;2022-12-10T17:42:00;3.60;1.00
816;DHT22;25928;51.062;13.752;2022-12-10T17:44:26;3.60;1.00
816;DHT22;25928;51.062;13.752;2022-12-10T17:46:52;3.50;1.00
816;DHT22;25928;51.062;13.752;2022-12-10T17:49:17;3.60;1.00
816;DHT22;25928;51.062;13.752;2022-12-10T17:51:43;3.70;1.00
816;DHT22;25928;51.062;13.752;2022-12-10T17:54:09;3.70;1.00
816;DHT22;25928;51.062;13.752;2022-12-10T17:56:35;3.80;1.00
816;DHT22;25928;51.062;13.752;2022-12-10T17:59:00;3.80;1.00
816;DHT22;25928;51.062;13.752;2022-12-10T18:01:26;3.90;1.00
816;DHT22;25928;51.062;13.752;2022-12-10T18:03:53;3.80;1.00
816;DHT22;25928;51.062;13.752;2022-12-10T18:06:21;3.80;1.00
816;DHT22;25928;51.062;13.752;2022-12-10T18:08:47;3.90;1.00
816;DHT22;25928;51.062;13.752;2022-12-10T18:11:17;3.80;1.00
816;DHT22;25928;51.062;13.752;2022-12-10T18:13:43;3.70;1.00
816;DHT22;25928;51.062;13.752;2022-12-10T18:16:34;3.50;1.00
816;DHT22;25928;51.062;13.752;2022-12-10T18:19:00;3.30;1.00
816;DHT22;25928;51.062;13.752;2022-12-10T18:21:26;3.00;1.00
816;DHT22;25928;51.062;13.752;2022-12-10T18:23:52;3.00;1.00
816;DHT22;25928;51.062;13.752;2022-12-10T18:26:20;2.90;1.00
816;DHT22;25928;51.062;13.752;2022-12-10T18:28:54;2.80;1.00